sensor_id;sensor_type;location;lat;lon;timestamp;P1;durP1;ratioP1;P2;durP2;ratioP2
37445;SDS011;23307;51.136;14.942;2023-03-14T00:00:45;8.48;;;4.43;;
37445;SDS011;23307;51.136;14.942;2023-03-14T00:03:10;6.25;;;4.47;;
37445;SDS011;23307;51.136;14.942;2023-03-14T00:05:35;6.35;;;4.40;;
37445;SDS011;23307;51.136;14.942;2023-03-14T00:08:01;6.57;;;4.43;;
37445;SDS011;23307;51.136;14.942;2023-03-14T00:10:26;7.57;;;4.80;;
37445;SDS011;23307;51.136;14.942;2023-03-14T00:12:52;6.63;;;4.90;;
37445;SDS011;23307;51.136;14.942;2023-03-14T00:15:17;6.18;;;4.90;;
37445;SDS011;23307;51.136;14.942;2023-03-14T00:17:43;8.05;;;5.00;;
37445;SDS011;23307;51.136;14.942;2023-03-14T00:20:09;7.57;;;4.65;;
37445;SDS011;23307;51.136;14.942;2023-03-14T00:22:37;6.82;;;4.50;;
37445;SDS011;23307;51.136;14.942;2023-03-14T00:25:03;6.30;;;4.70;;
37445;SDS011;23307;51.136;14.942;2023-03-14T00:27:31;6.18;;;4.25;;
37445;SDS011;23307;51.136;14.942;2023-03-14T00:29:57;9.77;;;5.20;;
37445;SDS011;23307;51.136;14.942;2023-03-14T00:32:22;7.53;;;4.60;;
37445;SDS011;23307;51.136;14.942;2023-03-14T00:34:48;6.03;;;4.88;;
37445;SDS011;23307;51.136;14.942;2023-03-14T00:37:14;5.05;;;4.18;;
37445;SDS011;23307;51.136;14.942;2023-03-14T00:39:39;7.97;;;4.60;;
37445;SDS011;23307;51.136;14.942;2023-03-14T00:42:05;4.68;;;4.22;;
37445;SDS011;23307;51.136;14.942;2023-03-14T00:44:30;6.32;;;4.25;;
37445;SDS011;23307;51.136;14.942;2023-03-14T00:46:56;7.68;;;4.03;;
37445;SDS011;23307;51.136;14.942;2023-03-14T00:49:22;6.35;;;4.03;;
37445;SDS011;23307;51.136;14.942;2023-03-14T00:51:48;5.32;;;3.83;;
37445;SDS011;23307;51.136;14.942;2023-03-14T00:54:13;5.68;;;3.65;;
37445;SDS011;23307;51.136;14.942;2023-03-14T00:56:39;5.93;;;4.07;;
37445;SDS011;23307;51.136;14.942;2023-03-14T00:59:04;5.15;;;3.72;;
37445;SDS011;23307;51.136;14.942;2023-03-14T01:01:29;6.28;;;4.32;;
37445;SDS011;23307;51.136;14.942;2023-03-14T01:03:55;6.88;;;4.07;;
37445;SDS011;23307;51.136;14.942;2023-03-14T01:06:22;7.78;;;4.28;;
37445;SDS011;23307;51.136;14.942;2023-03-14T01:08:49;7.13;;;4.63;;
37445;SDS011;23307;51.136;14.942;2023-03-14T01:11:16;5.85;;;4.95;;
37445;SDS011;23307;51.136;14.942;2023-03-14T01:13:46;6.68;;;4.97;;
37445;SDS011;23307;51.136;14.942;2023-03-14T01:16:12;7.90;;;5.05;;
37445;SDS011;23307;51.136;14.942;2023-03-14T01:18:39;7.18;;;5.35;;
37445;SDS011;23307;51.136;14.942;2023-03-14T01:21:16;7.15;;;5.55;;
37445;SDS011;23307;51.136;14.942;2023-03-14T01:23:46;8.88;;;5.13;;
37445;SDS011;23307;51.136;14.942;2023-03-14T01:26:13;6.47;;;4.80;;
37445;SDS011;23307;51.136;14.942;2023-03-14T01:28:40;7.28;;;4.63;;
37445;SDS011;23307;51.136;14.942;2023-03-14T01:31:06;7.50;;;4.75;;
37445;SDS011;23307;51.136;14.942;2023-03-14T01:33:34;5.25;;;3.90;;
37445;SDS011;23307;51.136;14.942;2023-03-14T01:35:59;6.68;;;4.10;;
37445;SDS011;23307;51.136;14.942;2023-03-14T01:38:27;5.35;;;3.33;;
37445;SDS011;23307;51.136;14.942;2023-03-14T01:40:53;4.70;;;3.03;;
37445;SDS011;23307;51.136;14.942;2023-03-14T01:43:19;5.40;;;3.03;;
37445;SDS011;23307;51.136;14.942;2023-03-14T01:45:54;6.10;;;3.67;;
37445;SDS011;23307;51.136;14.942;2023-03-14T01:48:57;4.07;;;2.92;;
37445;SDS011;23307;51.136;14.942;2023-03-14T01:56:49;2.92;;;2.65;;
37445;SDS011;23307;51.136;14.942;2023-03-14T01:59:21;5.25;;;3.25;;
37445;SDS011;23307;51.136;14.942;2023-03-14T02:01:47;3.72;;;2.75;;
37445;SDS011;23307;51.136;14.942;2023-03-14T02:04:15;4.07;;;2.97;;
37445;SDS011;23307;51.136;14.942;2023-03-14T02:06:47;5.43;;;2.90;;
37445;SDS011;23307;51.136;14.942;2023-03-14T02:09:34;3.95;;;3.22;;
37445;SDS011;23307;51.136;14.942;2023-03-14T02:12:01;4.57;;;2.95;;
37445;SDS011;23307;51.136;14.942;2023-03-14T02:14:32;3.67;;;2.97;;
37445;SDS011;23307;51.136;14.942;2023-03-14T02:17:00;4.30;;;3.30;;
37445;SDS011;23307;51.136;14.942;2023-03-14T02:19:47;5.45;;;3.28;;
37445;SDS011;23307;51.136;14.942;2023-03-14T02:22:32;4.82;;;3.40;;
37445;SDS011;23307;51.136;14.942;2023-03-14T02:25:04;4.07;;;3.25;;
37445;SDS011;23307;51.136;14.942;2023-03-14T02:27:53;6.65;;;3.13;;
37445;SDS011;23307;51.136;14.942;2023-03-14T02:30:20;5.00;;;3.80;;
37445;SDS011;23307;51.136;14.942;2023-03-14T02:32:47;3.55;;;2.90;;
37445;SDS011;23307;51.136;14.942;2023-03-14T02:35:24;4.35;;;3.47;;
37445;SDS011;23307;51.136;14.942;2023-03-14T02:40:32;4.28;;;2.92;;
37445;SDS011;23307;51.136;14.942;2023-03-14T02:42:57;4.15;;;2.97;;
37445;SDS011;23307;51.136;14.942;2023-03-14T02:47:52;4.03;;;3.33;;
37445;SDS011;23307;51.136;14.942;2023-03-14T02:50:25;4.95;;;3.42;;
37445;SDS011;23307;51.136;14.942;2023-03-14T02:52:54;4.68;;;3.30;;
37445;SDS011;23307;51.136;14.942;2023-03-14T02:55:22;5.93;;;3.45;;
37445;SDS011;23307;51.136;14.942;2023-03-14T02:57:49;4.00;;;2.88;;
37445;SDS011;23307;51.136;14.942;2023-03-14T03:00:15;5.35;;;3.17;;
37445;SDS011;23307;51.136;14.942;2023-03-14T03:02:41;4.75;;;3.38;;
37445;SDS011;23307;51.136;14.942;2023-03-14T03:05:06;3.50;;;3.20;;
37445;SDS011;23307;51.136;14.942;2023-03-14T03:07:32;4.82;;;3.75;;
37445;SDS011;23307;51.136;14.942;2023-03-14T03:09:58;4.85;;;3.78;;
37445;SDS011;23307;51.136;14.942;2023-03-14T03:12:23;4.97;;;3.70;;
37445;SDS011;23307;51.136;14.942;2023-03-14T03:14:49;5.30;;;3.97;;
37445;SDS011;23307;51.136;14.942;2023-03-14T03:17:14;6.07;;;4.00;;
37445;SDS011;23307;51.136;14.942;2023-03-14T03:19:40;4.53;;;3.92;;
37445;SDS011;23307;51.136;14.942;2023-03-14T03:22:05;4.38;;;3.72;;
37445;SDS011;23307;51.136;14.942;2023-03-14T03:24:31;4.40;;;3.47;;
37445;SDS011;23307;51.136;14.942;2023-03-14T03:26:57;6.90;;;3.70;;
37445;SDS011;23307;51.136;14.942;2023-03-14T03:29:22;4.68;;;3.88;;
37445;SDS011;23307;51.136;14.942;2023-03-14T03:31:48;5.22;;;3.97;;
37445;SDS011;23307;51.136;14.942;2023-03-14T03:34:13;4.85;;;3.50;;
37445;SDS011;23307;51.136;14.942;2023-03-14T03:36:39;7.05;;;3.22;;
37445;SDS011;23307;51.136;14.942;2023-03-14T03:39:05;5.75;;;3.92;;
37445;SDS011;23307;51.136;14.942;2023-03-14T03:41:31;4.88;;;3.58;;
37445;SDS011;23307;51.136;14.942;2023-03-14T03:43:57;5.93;;;3.28;;
37445;SDS011;23307;51.136;14.942;2023-03-14T03:46:23;3.38;;;3.08;;
37445;SDS011;23307;51.136;14.942;2023-03-14T03:48:53;5.28;;;3.22;;
37445;SDS011;23307;51.136;14.942;2023-03-14T03:51:24;6.55;;;3.80;;
37445;SDS011;23307;51.136;14.942;2023-03-14T03:53:49;5.55;;;3.45;;
37445;SDS011;23307;51.136;14.942;2023-03-14T03:56:15;5.13;;;3.10;;
37445;SDS011;23307;51.136;14.942;2023-03-14T03:58:40;3.65;;;3.22;;
37445;SDS011;23307;51.136;14.942;2023-03-14T04:01:07;3.80;;;3.00;;
37445;SDS011;23307;51.136;14.942;2023-03-14T04:03:33;4.80;;;3.13;;
37445;SDS011;23307;51.136;14.942;2023-03-14T04:06:03;4.90;;;3.35;;
37445;SDS011;23307;51.136;14.942;2023-03-14T04:08:29;7.45;;;3.53;;
37445;SDS011;23307;51.136;14.942;2023-03-14T04:10:56;4.82;;;3.20;;
37445;SDS011;23307;51.136;14.942;2023-03-14T04:13:22;3.95;;;3.00;;
37445;SDS011;23307;51.136;14.942;2023-03-14T04:15:48;4.55;;;2.83;;
37445;SDS011;23307;51.136;14.942;2023-03-14T04:18:14;5.18;;;3.60;;
37445;SDS011;23307;51.136;14.942;2023-03-14T04:20:39;5.85;;;3.20;;
37445;SDS011;23307;51.136;14.942;2023-03-14T04:23:04;4.60;;;3.17;;
37445;SDS011;23307;51.136;14.942;2023-03-14T04:25:30;5.68;;;3.55;;
37445;SDS011;23307;51.136;14.942;2023-03-14T04:27:55;4.63;;;3.55;;
37445;SDS011;23307;51.136;14.942;2023-03-14T04:30:21;4.05;;;3.30;;
37445;SDS011;23307;51.136;14.942;2023-03-14T04:32:47;4.25;;;3.25;;
37445;SDS011;23307;51.136;14.942;2023-03-14T04:35:12;6.00;;;3.33;;
37445;SDS011;23307;51.136;14.942;2023-03-14T04:37:39;5.43;;;3.80;;
37445;SDS011;23307;51.136;14.942;2023-03-14T04:40:06;5.90;;;4.47;;
37445;SDS011;23307;51.136;14.942;2023-03-14T04:42:33;4.60;;;3.50;;
37445;SDS011;23307;51.136;14.942;2023-03-14T04:44:59;4.90;;;3.60;;
37445;SDS011;23307;51.136;14.942;2023-03-14T04:47:25;4.60;;;4.03;;
37445;SDS011;23307;51.136;14.942;2023-03-14T04:49:50;6.43;;;4.53;;
37445;SDS011;23307;51.136;14.942;2023-03-14T04:52:16;10.40;;;9.30;;
37445;SDS011;23307;51.136;14.942;2023-03-14T04:54:41;5.55;;;4.97;;
37445;SDS011;23307;51.136;14.942;2023-03-14T04:57:07;4.80;;;3.80;;
37445;SDS011;23307;51.136;14.942;2023-03-14T04:59:32;5.45;;;3.70;;
37445;SDS011;23307;51.136;14.942;2023-03-14T05:01:58;4.32;;;3.63;;
37445;SDS011;23307;51.136;14.942;2023-03-14T05:04:23;5.22;;;3.78;;
37445;SDS011;23307;51.136;14.942;2023-03-14T05:06:49;4.80;;;3.40;;
37445;SDS011;23307;51.136;14.942;2023-03-14T05:09:14;5.40;;;3.72;;
37445;SDS011;23307;51.136;14.942;2023-03-14T05:11:40;4.75;;;3.60;;
37445;SDS011;23307;51.136;14.942;2023-03-14T05:14:06;4.25;;;3.85;;
37445;SDS011;23307;51.136;14.942;2023-03-14T05:16:31;4.90;;;3.60;;
37445;SDS011;23307;51.136;14.942;2023-03-14T05:18:57;5.25;;;4.20;;
37445;SDS011;23307;51.136;14.942;2023-03-14T05:21:22;6.45;;;4.00;;
37445;SDS011;23307;51.136;14.942;2023-03-14T05:23:48;4.50;;;3.75;;
37445;SDS011;23307;51.136;14.942;2023-03-14T05:26:13;7.07;;;4.38;;
37445;SDS011;23307;51.136;14.942;2023-03-14T05:28:41;7.70;;;3.85;;
37445;SDS011;23307;51.136;14.942;2023-03-14T05:31:07;4.18;;;3.63;;
37445;SDS011;23307;51.136;14.942;2023-03-14T05:33:33;6.40;;;4.05;;
37445;SDS011;23307;51.136;14.942;2023-03-14T05:35:59;4.85;;;3.97;;
37445;SDS011;23307;51.136;14.942;2023-03-14T05:38:24;6.68;;;4.50;;
37445;SDS011;23307;51.136;14.942;2023-03-14T05:40:50;5.45;;;4.18;;
37445;SDS011;23307;51.136;14.942;2023-03-14T05:43:15;6.03;;;4.32;;
37445;SDS011;23307;51.136;14.942;2023-03-14T05:45:41;4.20;;;3.80;;
37445;SDS011;23307;51.136;14.942;2023-03-14T05:48:07;5.97;;;3.78;;
37445;SDS011;23307;51.136;14.942;2023-03-14T05:50:33;4.80;;;3.50;;
37445;SDS011;23307;51.136;14.942;2023-03-14T05:52:58;4.05;;;3.63;;
37445;SDS011;23307;51.136;14.942;2023-03-14T05:55:24;6.10;;;4.10;;
37445;SDS011;23307;51.136;14.942;2023-03-14T05:57:50;4.20;;;3.80;;
37445;SDS011;23307;51.136;14.942;2023-03-14T06:00:15;4.97;;;4.00;;
37445;SDS011;23307;51.136;14.942;2023-03-14T06:02:41;4.10;;;3.53;;
37445;SDS011;23307;51.136;14.942;2023-03-14T06:05:07;4.63;;;3.70;;
37445;SDS011;23307;51.136;14.942;2023-03-14T06:07:33;7.20;;;4.25;;
37445;SDS011;23307;51.136;14.942;2023-03-14T06:09:58;6.22;;;4.20;;
37445;SDS011;23307;51.136;14.942;2023-03-14T06:12:24;6.00;;;4.10;;
37445;SDS011;23307;51.136;14.942;2023-03-14T06:14:50;5.43;;;4.05;;
37445;SDS011;23307;51.136;14.942;2023-03-14T06:17:15;4.70;;;4.13;;
37445;SDS011;23307;51.136;14.942;2023-03-14T06:19:41;4.97;;;3.85;;
37445;SDS011;23307;51.136;14.942;2023-03-14T06:22:06;4.82;;;4.20;;
37445;SDS011;23307;51.136;14.942;2023-03-14T06:24:32;4.97;;;3.95;;
37445;SDS011;23307;51.136;14.942;2023-03-14T06:26:57;5.95;;;4.05;;
37445;SDS011;23307;51.136;14.942;2023-03-14T06:29:23;6.90;;;4.43;;
37445;SDS011;23307;51.136;14.942;2023-03-14T06:31:48;5.40;;;4.22;;
37445;SDS011;23307;51.136;14.942;2023-03-14T06:34:14;4.28;;;3.88;;
37445;SDS011;23307;51.136;14.942;2023-03-14T06:36:39;5.13;;;4.20;;
37445;SDS011;23307;51.136;14.942;2023-03-14T06:39:05;5.95;;;4.07;;
37445;SDS011;23307;51.136;14.942;2023-03-14T06:41:30;5.88;;;3.88;;
37445;SDS011;23307;51.136;14.942;2023-03-14T06:43:56;5.47;;;3.75;;
37445;SDS011;23307;51.136;14.942;2023-03-14T06:46:21;5.43;;;3.80;;
37445;SDS011;23307;51.136;14.942;2023-03-14T06:48:47;5.13;;;3.65;;
37445;SDS011;23307;51.136;14.942;2023-03-14T06:51:12;5.35;;;3.90;;
37445;SDS011;23307;51.136;14.942;2023-03-14T06:53:38;6.28;;;3.60;;
37445;SDS011;23307;51.136;14.942;2023-03-14T06:56:03;5.28;;;3.90;;
37445;SDS011;23307;51.136;14.942;2023-03-14T06:58:29;4.13;;;3.58;;
37445;SDS011;23307;51.136;14.942;2023-03-14T07:00:54;4.65;;;3.55;;
37445;SDS011;23307;51.136;14.942;2023-03-14T07:03:21;5.40;;;3.70;;
37445;SDS011;23307;51.136;14.942;2023-03-14T07:05:47;7.15;;;4.10;;
37445;SDS011;23307;51.136;14.942;2023-03-14T07:08:12;5.80;;;4.13;;
37445;SDS011;23307;51.136;14.942;2023-03-14T07:10:38;7.10;;;3.75;;
37445;SDS011;23307;51.136;14.942;2023-03-14T07:13:03;5.40;;;3.88;;
37445;SDS011;23307;51.136;14.942;2023-03-14T07:15:29;8.95;;;5.25;;
37445;SDS011;23307;51.136;14.942;2023-03-14T07:17:55;4.97;;;4.10;;
37445;SDS011;23307;51.136;14.942;2023-03-14T07:20:20;5.70;;;4.28;;
37445;SDS011;23307;51.136;14.942;2023-03-14T07:22:49;5.05;;;4.45;;
37445;SDS011;23307;51.136;14.942;2023-03-14T07:25:15;5.13;;;4.18;;
37445;SDS011;23307;51.136;14.942;2023-03-14T07:27:44;4.30;;;3.90;;
37445;SDS011;23307;51.136;14.942;2023-03-14T07:30:10;7.28;;;4.05;;
37445;SDS011;23307;51.136;14.942;2023-03-14T07:32:36;7.32;;;4.40;;
37445;SDS011;23307;51.136;14.942;2023-03-14T07:35:02;4.63;;;3.80;;
37445;SDS011;23307;51.136;14.942;2023-03-14T07:37:28;5.32;;;4.05;;
37445;SDS011;23307;51.136;14.942;2023-03-14T07:39:53;4.53;;;4.10;;
37445;SDS011;23307;51.136;14.942;2023-03-14T07:42:19;5.85;;;4.40;;
37445;SDS011;23307;51.136;14.942;2023-03-14T07:44:44;4.43;;;3.65;;
37445;SDS011;23307;51.136;14.942;2023-03-14T07:47:10;4.18;;;3.78;;
37445;SDS011;23307;51.136;14.942;2023-03-14T07:49:35;7.63;;;4.15;;
37445;SDS011;23307;51.136;14.942;2023-03-14T07:52:01;4.30;;;3.90;;
37445;SDS011;23307;51.136;14.942;2023-03-14T07:54:26;5.22;;;4.22;;
37445;SDS011;23307;51.136;14.942;2023-03-14T07:56:52;5.47;;;3.92;;
37445;SDS011;23307;51.136;14.942;2023-03-14T07:59:17;4.93;;;4.13;;
37445;SDS011;23307;51.136;14.942;2023-03-14T08:01:43;6.43;;;4.38;;
37445;SDS011;23307;51.136;14.942;2023-03-14T08:04:09;4.88;;;4.38;;
37445;SDS011;23307;51.136;14.942;2023-03-14T08:06:35;4.80;;;4.05;;
37445;SDS011;23307;51.136;14.942;2023-03-14T08:09:01;5.63;;;4.40;;
37445;SDS011;23307;51.136;14.942;2023-03-14T08:11:27;4.82;;;4.07;;
37445;SDS011;23307;51.136;14.942;2023-03-14T08:13:52;5.03;;;4.18;;
37445;SDS011;23307;51.136;14.942;2023-03-14T08:16:18;4.60;;;4.07;;
37445;SDS011;23307;51.136;14.942;2023-03-14T08:18:44;4.70;;;3.90;;
37445;SDS011;23307;51.136;14.942;2023-03-14T08:21:10;4.72;;;3.70;;
37445;SDS011;23307;51.136;14.942;2023-03-14T08:23:36;4.43;;;3.67;;
37445;SDS011;23307;51.136;14.942;2023-03-14T08:26:02;8.30;;;3.47;;
37445;SDS011;23307;51.136;14.942;2023-03-14T08:28:28;5.38;;;3.42;;
37445;SDS011;23307;51.136;14.942;2023-03-14T08:30:56;3.85;;;3.25;;
37445;SDS011;23307;51.136;14.942;2023-03-14T08:33:22;5.28;;;3.08;;
37445;SDS011;23307;51.136;14.942;2023-03-14T08:35:48;6.28;;;2.92;;
37445;SDS011;23307;51.136;14.942;2023-03-14T08:38:13;6.15;;;3.38;;
37445;SDS011;23307;51.136;14.942;2023-03-14T08:40:39;5.40;;;3.40;;
37445;SDS011;23307;51.136;14.942;2023-03-14T08:43:04;6.20;;;3.17;;
37445;SDS011;23307;51.136;14.942;2023-03-14T08:45:30;3.60;;;2.78;;
37445;SDS011;23307;51.136;14.942;2023-03-14T08:47:55;4.60;;;3.03;;
37445;SDS011;23307;51.136;14.942;2023-03-14T08:50:23;4.10;;;3.00;;
37445;SDS011;23307;51.136;14.942;2023-03-14T08:52:49;4.00;;;3.10;;
37445;SDS011;23307;51.136;14.942;2023-03-14T08:55:14;4.60;;;3.22;;
37445;SDS011;23307;51.136;14.942;2023-03-14T08:57:40;4.18;;;3.15;;
37445;SDS011;23307;51.136;14.942;2023-03-14T09:00:06;4.15;;;3.30;;
37445;SDS011;23307;51.136;14.942;2023-03-14T09:02:40;3.28;;;2.97;;
37445;SDS011;23307;51.136;14.942;2023-03-14T09:05:06;3.70;;;3.17;;
37445;SDS011;23307;51.136;14.942;2023-03-14T09:07:32;3.40;;;3.05;;
37445;SDS011;23307;51.136;14.942;2023-03-14T09:09:58;3.42;;;3.08;;
37445;SDS011;23307;51.136;14.942;2023-03-14T09:12:23;3.75;;;3.00;;
37445;SDS011;23307;51.136;14.942;2023-03-14T09:14:49;4.07;;;2.60;;
37445;SDS011;23307;51.136;14.942;2023-03-14T09:17:14;4.25;;;2.50;;
37445;SDS011;23307;51.136;14.942;2023-03-14T09:19:40;3.28;;;2.80;;
37445;SDS011;23307;51.136;14.942;2023-03-14T09:22:05;5.68;;;2.35;;
37445;SDS011;23307;51.136;14.942;2023-03-14T09:24:30;4.88;;;2.38;;
37445;SDS011;23307;51.136;14.942;2023-03-14T09:26:56;3.92;;;2.25;;
37445;SDS011;23307;51.136;14.942;2023-03-14T09:29:22;2.58;;;1.88;;
37445;SDS011;23307;51.136;14.942;2023-03-14T09:31:47;3.65;;;1.98;;
37445;SDS011;23307;51.136;14.942;2023-03-14T09:34:13;4.68;;;2.50;;
37445;SDS011;23307;51.136;14.942;2023-03-14T09:36:38;4.47;;;2.10;;
37445;SDS011;23307;51.136;14.942;2023-03-14T09:39:04;3.22;;;1.92;;
37445;SDS011;23307;51.136;14.942;2023-03-14T09:44:10;5.20;;;2.10;;
37445;SDS011;23307;51.136;14.942;2023-03-14T09:46:51;2.58;;;1.92;;
37445;SDS011;23307;51.136;14.942;2023-03-14T09:49:20;2.40;;;1.98;;
37445;SDS011;23307;51.136;14.942;2023-03-14T09:51:50;2.30;;;1.85;;
37445;SDS011;23307;51.136;14.942;2023-03-14T09:54:32;2.72;;;1.77;;
37445;SDS011;23307;51.136;14.942;2023-03-14T09:57:08;1.60;;;1.50;;
37445;SDS011;23307;51.136;14.942;2023-03-14T09:59:38;2.50;;;1.85;;
37445;SDS011;23307;51.136;14.942;2023-03-14T10:02:11;2.13;;;1.92;;
37445;SDS011;23307;51.136;14.942;2023-03-14T10:04:56;2.63;;;1.75;;
37445;SDS011;23307;51.136;14.942;2023-03-14T10:07:27;4.57;;;1.85;;
37445;SDS011;23307;51.136;14.942;2023-03-14T10:09:54;3.28;;;1.90;;
37445;SDS011;23307;51.136;14.942;2023-03-14T10:12:22;3.35;;;1.77;;
37445;SDS011;23307;51.136;14.942;2023-03-14T10:15:02;2.42;;;1.70;;
37445;SDS011;23307;51.136;14.942;2023-03-14T10:17:37;3.35;;;2.00;;
37445;SDS011;23307;51.136;14.942;2023-03-14T10:20:14;3.80;;;1.95;;
37445;SDS011;23307;51.136;14.942;2023-03-14T10:22:52;3.85;;;1.85;;
37445;SDS011;23307;51.136;14.942;2023-03-14T10:25:28;2.80;;;1.58;;
37445;SDS011;23307;51.136;14.942;2023-03-14T10:27:55;2.45;;;1.77;;
37445;SDS011;23307;51.136;14.942;2023-03-14T10:30:28;2.53;;;1.80;;
37445;SDS011;23307;51.136;14.942;2023-03-14T10:33:07;1.98;;;1.50;;
37445;SDS011;23307;51.136;14.942;2023-03-14T10:35:34;2.55;;;1.70;;
37445;SDS011;23307;51.136;14.942;2023-03-14T10:38:01;2.30;;;1.60;;
37445;SDS011;23307;51.136;14.942;2023-03-14T10:40:36;3.67;;;1.58;;
37445;SDS011;23307;51.136;14.942;2023-03-14T10:43:04;1.75;;;1.58;;
37445;SDS011;23307;51.136;14.942;2023-03-14T10:45:34;2.97;;;1.58;;
37445;SDS011;23307;51.136;14.942;2023-03-14T10:48:16;2.33;;;1.67;;
37445;SDS011;23307;51.136;14.942;2023-03-14T10:50:55;3.80;;;1.65;;
37445;SDS011;23307;51.136;14.942;2023-03-14T10:53:42;2.10;;;1.70;;
37445;SDS011;23307;51.136;14.942;2023-03-14T10:56:17;3.55;;;1.67;;
37445;SDS011;23307;51.136;14.942;2023-03-14T10:58:48;3.25;;;1.55;;
37445;SDS011;23307;51.136;14.942;2023-03-14T11:13:01;1.85;;;1.60;;
37445;SDS011;23307;51.136;14.942;2023-03-14T11:15:33;1.60;;;1.25;;
37445;SDS011;23307;51.136;14.942;2023-03-14T11:20:59;1.77;;;1.63;;
37445;SDS011;23307;51.136;14.942;2023-03-14T11:29:12;2.55;;;1.45;;
37445;SDS011;23307;51.136;14.942;2023-03-14T11:31:55;3.50;;;1.33;;
37445;SDS011;23307;51.136;14.942;2023-03-14T11:37:06;1.85;;;1.30;;
37445;SDS011;23307;51.136;14.942;2023-03-14T11:40:13;2.58;;;1.50;;
37445;SDS011;23307;51.136;14.942;2023-03-14T11:42:43;2.63;;;1.60;;
37445;SDS011;23307;51.136;14.942;2023-03-14T11:45:18;1.50;;;1.33;;
37445;SDS011;23307;51.136;14.942;2023-03-14T11:47:50;2.90;;;1.50;;
37445;SDS011;23307;51.136;14.942;2023-03-14T11:50:27;2.35;;;1.17;;
37445;SDS011;23307;51.136;14.942;2023-03-14T11:53:13;2.13;;;1.20;;
37445;SDS011;23307;51.136;14.942;2023-03-14T11:55:42;1.85;;;1.13;;
37445;SDS011;23307;51.136;14.942;2023-03-14T11:58:26;2.15;;;1.10;;
37445;SDS011;23307;51.136;14.942;2023-03-14T12:00:54;1.73;;;1.15;;
37445;SDS011;23307;51.136;14.942;2023-03-14T12:03:24;2.38;;;1.20;;
37445;SDS011;23307;51.136;14.942;2023-03-14T12:06:13;2.13;;;1.23;;
37445;SDS011;23307;51.136;14.942;2023-03-14T12:14:17;1.67;;;1.10;;
37445;SDS011;23307;51.136;14.942;2023-03-14T12:16:46;1.80;;;1.00;;
37445;SDS011;23307;51.136;14.942;2023-03-14T12:19:24;2.97;;;1.70;;
37445;SDS011;23307;51.136;14.942;2023-03-14T12:21:54;1.88;;;1.20;;
37445;SDS011;23307;51.136;14.942;2023-03-14T12:24:31;1.63;;;1.15;;
37445;SDS011;23307;51.136;14.942;2023-03-14T12:27:01;2.25;;;1.50;;
37445;SDS011;23307;51.136;14.942;2023-03-14T12:29:28;2.90;;;1.13;;
37445;SDS011;23307;51.136;14.942;2023-03-14T12:34:26;1.67;;;1.10;;
37445;SDS011;23307;51.136;14.942;2023-03-14T12:36:59;2.15;;;1.00;;
37445;SDS011;23307;51.136;14.942;2023-03-14T12:39:49;1.63;;;1.10;;
37445;SDS011;23307;51.136;14.942;2023-03-14T12:45:42;1.75;;;0.98;;
37445;SDS011;23307;51.136;14.942;2023-03-14T12:48:32;1.38;;;0.90;;
37445;SDS011;23307;51.136;14.942;2023-03-14T12:51:04;2.92;;;1.08;;
37445;SDS011;23307;51.136;14.942;2023-03-14T13:02:14;1.63;;;1.10;;
37445;SDS011;23307;51.136;14.942;2023-03-14T13:05:01;2.90;;;0.93;;
37445;SDS011;23307;51.136;14.942;2023-03-14T13:13:24;1.65;;;1.05;;
37445;SDS011;23307;51.136;14.942;2023-03-14T13:15:46;2.25;;;1.33;;
37445;SDS011;23307;51.136;14.942;2023-03-14T13:18:14;2.25;;;1.17;;
37445;SDS011;23307;51.136;14.942;2023-03-14T13:20:57;3.47;;;1.33;;
37445;SDS011;23307;51.136;14.942;2023-03-14T13:23:30;1.23;;;1.10;;
37445;SDS011;23307;51.136;14.942;2023-03-14T13:25:58;3.42;;;1.42;;
37445;SDS011;23307;51.136;14.942;2023-03-14T13:28:25;2.35;;;1.10;;
37445;SDS011;23307;51.136;14.942;2023-03-14T13:30:56;2.10;;;1.20;;
37445;SDS011;23307;51.136;14.942;2023-03-14T13:33:24;1.38;;;0.98;;
37445;SDS011;23307;51.136;14.942;2023-03-14T13:36:03;1.85;;;1.08;;
37445;SDS011;23307;51.136;14.942;2023-03-14T13:38:31;1.23;;;1.13;;
37445;SDS011;23307;51.136;14.942;2023-03-14T13:40:59;1.85;;;1.45;;
37445;SDS011;23307;51.136;14.942;2023-03-14T13:43:30;1.90;;;1.00;;
37445;SDS011;23307;51.136;14.942;2023-03-14T13:48:43;3.10;;;1.58;;
37445;SDS011;23307;51.136;14.942;2023-03-14T13:51:18;3.47;;;2.50;;
37445;SDS011;23307;51.136;14.942;2023-03-14T13:53:51;3.80;;;1.35;;
37445;SDS011;23307;51.136;14.942;2023-03-14T13:56:19;2.45;;;1.20;;
37445;SDS011;23307;51.136;14.942;2023-03-14T13:58:46;2.58;;;1.45;;
37445;SDS011;23307;51.136;14.942;2023-03-14T14:01:16;4.40;;;1.50;;
37445;SDS011;23307;51.136;14.942;2023-03-14T14:03:45;2.10;;;1.20;;
37445;SDS011;23307;51.136;14.942;2023-03-14T14:06:22;10.77;;;1.80;;
37445;SDS011;23307;51.136;14.942;2023-03-14T14:08:58;2.42;;;1.00;;
37445;SDS011;23307;51.136;14.942;2023-03-14T14:11:35;1.73;;;1.10;;
37445;SDS011;23307;51.136;14.942;2023-03-14T14:14:08;2.38;;;0.95;;
37445;SDS011;23307;51.136;14.942;2023-03-14T14:16:38;1.27;;;0.90;;
37445;SDS011;23307;51.136;14.942;2023-03-14T14:19:04;2.10;;;0.90;;
37445;SDS011;23307;51.136;14.942;2023-03-14T14:21:30;1.58;;;1.10;;
37445;SDS011;23307;51.136;14.942;2023-03-14T14:23:56;1.73;;;1.10;;
37445;SDS011;23307;51.136;14.942;2023-03-14T14:26:22;1.05;;;0.90;;
37445;SDS011;23307;51.136;14.942;2023-03-14T14:28:48;2.53;;;1.00;;
37445;SDS011;23307;51.136;14.942;2023-03-14T14:31:24;1.15;;;1.00;;
37445;SDS011;23307;51.136;14.942;2023-03-14T14:39:18;0.90;;;0.70;;
37445;SDS011;23307;51.136;14.942;2023-03-14T14:41:46;1.15;;;0.93;;
37445;SDS011;23307;51.136;14.942;2023-03-14T14:44:13;1.60;;;1.13;;
37445;SDS011;23307;51.136;14.942;2023-03-14T14:46:43;0.98;;;0.75;;
37445;SDS011;23307;51.136;14.942;2023-03-14T14:49:09;1.08;;;0.90;;
37445;SDS011;23307;51.136;14.942;2023-03-14T14:51:43;1.13;;;0.82;;
37445;SDS011;23307;51.136;14.942;2023-03-14T14:54:16;1.15;;;0.93;;
37445;SDS011;23307;51.136;14.942;2023-03-14T14:56:50;2.05;;;0.90;;
37445;SDS011;23307;51.136;14.942;2023-03-14T14:59:21;1.23;;;0.80;;
37445;SDS011;23307;51.136;14.942;2023-03-14T15:01:49;2.28;;;1.00;;
37445;SDS011;23307;51.136;14.942;2023-03-14T15:04:16;1.88;;;1.23;;
37445;SDS011;23307;51.136;14.942;2023-03-14T15:06:42;1.30;;;0.80;;
37445;SDS011;23307;51.136;14.942;2023-03-14T15:09:10;1.20;;;0.85;;
37445;SDS011;23307;51.136;14.942;2023-03-14T15:11:36;1.27;;;1.00;;
37445;SDS011;23307;51.136;14.942;2023-03-14T15:14:02;1.55;;;0.93;;
37445;SDS011;23307;51.136;14.942;2023-03-14T15:16:29;1.27;;;0.90;;
37445;SDS011;23307;51.136;14.942;2023-03-14T15:18:56;1.95;;;1.30;;
37445;SDS011;23307;51.136;14.942;2023-03-14T15:21:24;3.15;;;1.30;;
37445;SDS011;23307;51.136;14.942;2023-03-14T15:23:52;2.20;;;1.15;;
37445;SDS011;23307;51.136;14.942;2023-03-14T15:26:18;3.83;;;1.40;;
37445;SDS011;23307;51.136;14.942;2023-03-14T15:28:49;1.55;;;1.15;;
37445;SDS011;23307;51.136;14.942;2023-03-14T15:31:15;1.55;;;1.05;;
37445;SDS011;23307;51.136;14.942;2023-03-14T15:33:42;1.80;;;1.30;;
37445;SDS011;23307;51.136;14.942;2023-03-14T15:36:23;2.20;;;1.38;;
37445;SDS011;23307;51.136;14.942;2023-03-14T15:38:53;1.92;;;1.13;;
37445;SDS011;23307;51.136;14.942;2023-03-14T15:41:20;3.05;;;1.13;;
37445;SDS011;23307;51.136;14.942;2023-03-14T15:43:47;2.72;;;1.00;;
37445;SDS011;23307;51.136;14.942;2023-03-14T15:46:13;0.90;;;0.80;;
37445;SDS011;23307;51.136;14.942;2023-03-14T15:48:39;1.65;;;1.00;;
37445;SDS011;23307;51.136;14.942;2023-03-14T15:51:05;1.92;;;1.00;;